createdAt,value
2018-04-11T00:01:24.407Z,100331
2018-04-11T00:06:35.903Z,100326
2018-04-11T00:09:04.142Z,100331
2018-04-11T00:21:15.449Z,100321
2018-04-11T00:23:43.697Z,100322
2018-04-11T00:26:13.887Z,100321
2018-04-11T00:28:43.689Z,100322
2018-04-11T00:31:11.888Z,100313
2018-04-11T00:33:40.800Z,100324
2018-04-11T00:36:09.020Z,100325
2018-04-11T00:38:37.180Z,100325
2018-04-11T00:41:05.323Z,100334
2018-04-11T00:43:41.239Z,100326
2018-04-11T00:46:09.542Z,100323
2018-04-11T00:48:37.710Z,100336
2018-04-11T00:51:05.854Z,100330
2018-04-11T00:53:34.752Z,100325
2018-04-11T00:56:02.906Z,100316
2018-04-11T00:58:31.842Z,100322
2018-04-11T01:01:00.011Z,100323
2018-04-11T01:03:28.147Z,100324
2018-04-11T01:05:57.051Z,100324
2018-04-11T01:08:25.191Z,100335
2018-04-11T01:10:53.361Z,100323
2018-04-11T01:13:22.347Z,100321
2018-04-11T01:15:50.532Z,100318
2018-04-11T01:18:19.446Z,100321
2018-04-11T01:20:47.609Z,100315
2018-04-11T01:23:16.507Z,100317
2018-04-11T01:25:44.679Z,100318
2018-04-11T01:28:13.605Z,100317
2018-04-11T01:30:42.098Z,100315
2018-04-11T01:33:10.231Z,100324
2018-04-11T01:35:38.350Z,100330
2018-04-11T01:38:07.281Z,100319
2018-04-11T01:40:36.173Z,100332
2018-04-11T01:43:05.107Z,100321
2018-04-11T01:45:33.244Z,100320
2018-04-11T01:48:01.398Z,100320
2018-04-11T01:50:30.305Z,100321
2018-04-11T01:52:58.464Z,100312
2018-04-11T01:55:27.383Z,100315
2018-04-11T01:57:55.510Z,100320
2018-04-11T02:00:23.648Z,100321
2018-04-11T02:02:51.790Z,100325
2018-04-11T02:05:19.926Z,100335
2018-04-11T02:07:48.062Z,100335
2018-04-11T02:10:16.204Z,100334
2018-04-11T02:12:44.350Z,100335
2018-04-11T02:15:13.287Z,100349
2018-04-11T02:17:41.441Z,100353
2018-04-11T02:20:09.594Z,100370
2018-04-11T02:22:37.757Z,100353
2018-04-11T02:25:07.026Z,100359
2018-04-11T02:27:35.201Z,100348
2018-04-11T02:30:03.415Z,100364
2018-04-11T02:32:32.375Z,100363
2018-04-11T02:35:00.530Z,100360
2018-04-11T02:37:28.682Z,100371
2018-04-11T02:39:56.841Z,100371
2018-04-11T02:42:24.965Z,100361
2018-04-11T02:44:53.117Z,100359
2018-04-11T02:47:21.250Z,100372
2018-04-11T02:49:49.380Z,100360
2018-04-11T02:52:17.515Z,100350
2018-04-11T02:54:45.691Z,100364
2018-04-11T02:57:13.815Z,100357
2018-04-11T02:59:42.725Z,100359
2018-04-11T03:02:10.871Z,100346
2018-04-11T03:04:39.025Z,100352
2018-04-11T03:07:07.185Z,100340
2018-04-11T03:09:35.335Z,100355
2018-04-11T03:12:03.459Z,100361
2018-04-11T03:14:31.598Z,100369
2018-04-11T03:16:59.729Z,100358
2018-04-11T03:19:28.646Z,100357
2018-04-11T03:21:56.790Z,100356
2018-04-11T03:24:24.964Z,100362
2018-04-11T03:26:53.131Z,100368
2018-04-11T03:29:22.029Z,100377
2018-04-11T03:31:50.160Z,100380
2018-04-11T03:34:18.315Z,100380
2018-04-11T03:36:46.450Z,100374
2018-04-11T03:39:14.630Z,100368
2018-04-11T03:41:42.760Z,100364
2018-04-11T03:44:10.901Z,100377
2018-04-11T03:46:39.062Z,100381
2018-04-11T03:49:07.200Z,100377
2018-04-11T03:51:36.082Z,100372
2018-04-11T03:54:05.001Z,100359
2018-04-11T03:56:33.124Z,100362
2018-04-11T03:59:01.336Z,100369
2018-04-11T04:01:29.577Z,100362
2018-04-11T04:03:58.482Z,100367
2018-04-11T04:06:27.370Z,100367
2018-04-11T04:08:56.310Z,100362
2018-04-11T04:11:24.433Z,100356
2018-04-11T04:14:10.889Z,100370
2018-04-11T04:16:56.755Z,100358
2018-04-11T04:19:42.506Z,100352
2018-04-11T04:22:11.432Z,100357
2018-04-11T04:24:39.566Z,100366
2018-04-11T04:27:07.712Z,100366
2018-04-11T04:29:35.848Z,100377
2018-04-11T04:32:03.988Z,100370
2018-04-11T04:34:32.877Z,100381
2018-04-11T04:37:01.784Z,100387
2018-04-11T04:39:29.936Z,100387
2018-04-11T04:41:58.884Z,100391
2018-04-11T04:44:27.022Z,100389
2018-04-11T04:46:55.240Z,100381
2018-04-11T04:49:23.414Z,100391
2018-04-11T04:51:51.546Z,100391
2018-04-11T04:54:19.687Z,100391
2018-04-11T04:56:48.699Z,100387
2018-04-11T04:59:17.601Z,100385
2018-04-11T05:01:45.746Z,100386
2018-04-11T05:04:14.677Z,100386
2018-04-11T05:06:42.808Z,100382
2018-04-11T05:09:11.714Z,100383
2018-04-11T05:11:39.849Z,100385
2018-04-11T05:14:08.005Z,100400
2018-04-11T05:16:36.238Z,100396
2018-04-11T05:19:04.390Z,100400
2018-04-11T05:21:33.312Z,100396
2018-04-11T05:24:01.502Z,100398
2018-04-11T05:26:29.680Z,100419
2018-04-11T05:28:57.828Z,100417
2018-04-11T05:31:25.951Z,100412
2018-04-11T05:33:54.117Z,100410
2018-04-11T05:36:22.245Z,100418
2018-04-11T05:39:02.735Z,100422
2018-04-11T05:41:30.880Z,100416
2018-04-11T05:43:59.038Z,100426
2018-04-11T05:46:27.209Z,100438
2018-04-11T05:48:55.352Z,100443
2018-04-11T05:51:23.510Z,100450
2018-04-11T05:53:51.650Z,100456
2018-04-11T05:56:19.792Z,100450
2018-04-11T05:58:48.739Z,100456
2018-04-11T06:01:22.050Z,100461
2018-04-11T06:03:50.387Z,100452
2018-04-11T06:06:18.515Z,100463
2018-04-11T06:08:47.432Z,100459
2018-04-11T06:11:15.568Z,100467
2018-04-11T06:13:43.749Z,100469
2018-04-11T06:16:13.670Z,100478
2018-04-11T06:18:42.652Z,100476
2018-04-11T06:21:13.614Z,100476
2018-04-11T06:23:41.840Z,100475
2018-04-11T06:26:09.990Z,100477
2018-04-11T06:28:38.158Z,100472
2018-04-11T06:31:06.324Z,100476
2018-04-11T06:33:34.457Z,100473
2018-04-11T06:36:03.383Z,100471
2018-04-11T06:38:31.516Z,100477
2018-04-11T06:40:59.661Z,100470
2018-04-11T06:43:27.844Z,100477
2018-04-11T06:45:56.036Z,100474
2018-04-11T06:48:25.085Z,100479
2018-04-11T06:50:53.258Z,100482
2018-04-11T06:53:21.405Z,100483
2018-04-11T06:55:49.623Z,100476
2018-04-11T06:58:17.901Z,100484
2018-04-11T07:00:47.648Z,100482
2018-04-11T07:03:15.821Z,100484
2018-04-11T07:05:44.743Z,100486
2018-04-11T07:08:12.880Z,100498
2018-04-11T07:10:41.796Z,100495
2018-04-11T07:13:09.984Z,100489
2018-04-11T07:15:38.144Z,100490
2018-04-11T07:18:06.375Z,100509
2018-04-11T07:20:34.507Z,100507
2018-04-11T07:23:02.704Z,100506
2018-04-11T07:25:30.846Z,100508
2018-04-11T07:27:58.976Z,100508
2018-04-11T07:30:27.140Z,100512
2018-04-11T07:32:55.287Z,100510
2018-04-11T07:35:23.474Z,100508
2018-04-11T07:37:51.878Z,100508
2018-04-11T07:40:20.847Z,100508
2018-04-11T07:42:48.981Z,100509
2018-04-11T07:45:17.156Z,100517
2018-04-11T07:47:45.293Z,100530
2018-04-11T07:52:56.421Z,100527
2018-04-11T07:55:27.095Z,100515
2018-04-11T07:57:56.333Z,100518
2018-04-11T08:00:24.636Z,100514
2018-04-11T08:02:56.578Z,100509
2018-04-11T08:05:24.807Z,100505
2018-04-11T08:07:53.798Z,100500
2018-04-11T08:10:22.829Z,100518
2018-04-11T08:12:50.998Z,100523
2018-04-11T08:15:19.136Z,100533
2018-04-11T08:17:48.033Z,100538
2018-04-11T08:20:16.966Z,100542
2018-04-11T08:25:55.646Z,100540
2018-04-11T08:28:23.796Z,100532
2018-04-11T08:30:51.983Z,100528
2018-04-11T08:33:24.135Z,100531
2018-04-11T08:35:52.300Z,100541
2018-04-11T08:38:23.160Z,100538
2018-04-11T08:40:51.303Z,100539
2018-04-11T08:43:50.950Z,100533
2018-04-11T08:46:19.398Z,100536
2018-04-11T08:48:47.534Z,100539
2018-04-11T08:54:14.757Z,100535
2018-04-11T09:03:36.084Z,100532
2018-04-11T09:09:36.197Z,100539
2018-04-11T09:12:06.830Z,100545
2018-04-11T09:15:04.725Z,100533
2018-04-11T09:17:38.356Z,100536
2018-04-11T09:23:02.047Z,100528
2018-04-11T09:25:30.226Z,100552
2018-04-11T09:27:58.473Z,100558
2018-04-11T09:33:46.438Z,100540
2018-04-11T09:36:40.673Z,100528
2018-04-11T09:39:08.915Z,100533
2018-04-11T09:41:43.590Z,100503
2018-04-11T09:44:40.541Z,100511
2018-04-11T09:50:07.554Z,100534
2018-04-11T09:52:42.879Z,100520
2018-04-11T09:55:11.532Z,100523
2018-04-11T09:57:39.902Z,100516
2018-04-11T10:03:06.738Z,100510
2018-04-11T10:05:47.353Z,100517
2018-04-11T10:11:37.047Z,100527
2018-04-11T10:26:14.137Z,100503
2018-04-11T10:28:42.289Z,100513
2018-04-11T10:31:10.472Z,100500
2018-04-11T10:33:38.862Z,100510
2018-04-11T10:36:13.329Z,100501
2018-04-11T10:38:52.691Z,100494
2018-04-11T10:41:20.981Z,100511
2018-04-11T10:49:29.775Z,100509
2018-04-11T10:55:17.170Z,100506
2018-04-11T10:57:45.637Z,100509
2018-04-11T11:00:13.923Z,100503
2018-04-11T11:02:55.270Z,100487
2018-04-11T11:08:35.508Z,100498
2018-04-11T11:11:27.714Z,100479
2018-04-11T11:20:02.871Z,100478
2018-04-11T11:32:30.742Z,100489
2018-04-11T11:41:14.005Z,100482
2018-04-11T11:43:52.084Z,100497
2018-04-11T11:46:21.349Z,100491
2018-04-11T11:48:49.603Z,100494
2018-04-11T11:54:22.021Z,100484
2018-04-11T11:56:50.200Z,100496
2018-04-11T11:59:24.760Z,100495
2018-04-11T12:02:12.839Z,100495
2018-04-11T12:07:55.259Z,100502
2018-04-11T12:10:23.417Z,100486
2018-04-11T12:12:52.364Z,100439
2018-04-11T12:15:20.578Z,100494
2018-04-11T12:20:53.847Z,100481
2018-04-11T12:23:22.078Z,100489
2018-04-11T12:25:51.019Z,100483
2018-04-11T12:28:19.155Z,100490
2018-04-11T12:30:48.054Z,100476
2018-04-11T12:33:18.533Z,100477
2018-04-11T12:35:46.695Z,100494
2018-04-11T12:38:15.552Z,100503
2018-04-11T12:40:44.066Z,100499
2018-04-11T12:43:16.548Z,100494
2018-04-11T12:46:10.101Z,100503
2018-04-11T12:51:58.875Z,100489
2018-04-11T12:54:27.000Z,100494
2018-04-11T12:56:55.459Z,100495
2018-04-11T12:59:23.672Z,100501
2018-04-11T13:01:51.802Z,100494
2018-04-11T13:04:20.764Z,100501
2018-04-11T13:06:49.059Z,100494
2018-04-11T13:09:17.482Z,100502
2018-04-11T13:11:45.820Z,100497
2018-04-11T13:14:14.927Z,100495
2018-04-11T13:16:43.193Z,100490
2018-04-11T13:19:15.765Z,100490
2018-04-11T13:21:45.821Z,100486
2018-04-11T13:24:14.179Z,100475
2018-04-11T13:26:48.374Z,100470
2018-04-11T13:29:17.698Z,100477
2018-04-11T13:31:45.930Z,100473
2018-04-11T13:34:14.132Z,100466
2018-04-11T13:36:43.656Z,100465
2018-04-11T13:39:11.807Z,100467
2018-04-11T13:41:40.177Z,100464
2018-04-11T13:44:09.020Z,100473
2018-04-11T13:46:42.159Z,100463
2018-04-11T13:49:10.567Z,100451
2018-04-11T13:51:38.784Z,100450
2018-04-11T13:56:45.468Z,100445
2018-04-11T13:59:13.671Z,100449
2018-04-11T14:01:42.894Z,100474
2018-04-11T14:04:11.282Z,100473
2018-04-11T14:06:54.036Z,100459
2018-04-11T14:09:25.632Z,100451
2018-04-11T14:11:55.288Z,100447
2018-04-11T14:14:23.570Z,100442
2018-04-11T14:16:51.780Z,100442
2018-04-11T14:19:21.369Z,100456
2018-04-11T14:21:49.567Z,100470
2018-04-11T14:24:17.715Z,100469
2018-04-11T14:26:45.886Z,100442
2018-04-11T14:34:56.180Z,100446
2018-04-11T14:37:25.809Z,100448
2018-04-11T14:39:54.895Z,100434
2018-04-11T14:42:40.346Z,100431
2018-04-11T14:45:08.824Z,100431
2018-04-11T14:47:37.012Z,100429
2018-04-11T14:53:03.128Z,100440
2018-04-11T14:58:14.297Z,100425
2018-04-11T15:03:44.001Z,100411
2018-04-11T15:06:12.968Z,100416
2018-04-11T15:08:41.935Z,100429
2018-04-11T15:13:54.759Z,100425
2018-04-11T15:19:12.095Z,100436
2018-04-11T15:22:06.480Z,100441
2018-04-11T15:27:13.314Z,100370
2018-04-11T15:29:41.675Z,100421
2018-04-11T15:32:10.776Z,100405
2018-04-11T15:34:39.076Z,100410
2018-04-11T15:37:07.527Z,100420
2018-04-11T15:39:35.771Z,100437
2018-04-11T15:42:04.941Z,100428
2018-04-11T15:44:34.837Z,100429
2018-04-11T15:47:03.005Z,100424
2018-04-11T15:49:31.148Z,100422
2018-04-11T15:51:59.324Z,100431
2018-04-11T15:54:27.483Z,100430
2018-04-11T15:56:56.430Z,100431
2018-04-11T15:59:25.362Z,100435
2018-04-11T16:01:53.583Z,100433
2018-04-11T16:04:22.554Z,100425
2018-04-11T16:06:52.455Z,100424
2018-04-11T16:09:20.589Z,100409
2018-04-11T16:11:48.827Z,100414
2018-04-11T16:14:18.999Z,100414
2018-04-11T16:16:47.590Z,100426
2018-04-11T16:19:15.871Z,100442
2018-04-11T16:21:56.112Z,100443
2018-04-11T16:24:32.071Z,100435
2018-04-11T16:30:22.700Z,100433
2018-04-11T16:33:04.010Z,100427
2018-04-11T16:35:32.377Z,100414
2018-04-11T16:38:00.659Z,100420
2018-04-11T16:43:48.880Z,100423
2018-04-11T16:50:21.695Z,100442
2018-04-11T16:56:21.343Z,100425
2018-04-11T17:17:03.672Z,100452
2018-04-11T17:26:01.812Z,100455
2018-04-11T17:28:47.704Z,100454
2018-04-11T17:31:28.405Z,100450
2018-04-11T17:37:08.875Z,100450
2018-04-11T17:39:37.263Z,100458
2018-04-11T17:42:05.761Z,100453
2018-04-11T17:44:33.963Z,100445
2018-04-11T17:47:02.200Z,100458
2018-04-11T17:49:31.548Z,100454
2018-04-11T17:51:59.795Z,100445
2018-04-11T17:54:28.048Z,100454
2018-04-11T18:00:29.891Z,100456
2018-04-11T18:11:34.241Z,100466
2018-04-11T18:14:02.803Z,100463
2018-04-11T18:16:31.060Z,100467
2018-04-11T18:19:03.083Z,100466
2018-04-11T18:21:31.480Z,100460
2018-04-11T18:24:05.024Z,100463
2018-04-11T18:26:33.521Z,100468
2018-04-11T18:29:02.027Z,100469
2018-04-11T18:31:40.094Z,100466
2018-04-11T18:34:37.521Z,100467
2018-04-11T18:37:06.419Z,100470
2018-04-11T19:11:12.382Z,100464
2018-04-11T19:23:45.844Z,100461
2018-04-11T19:26:22.072Z,100465
2018-04-11T19:29:14.809Z,100462
2018-04-11T19:35:03.109Z,100464
2018-04-11T19:37:31.404Z,100461
2018-04-11T19:40:12.672Z,100477
2018-04-11T19:43:08.115Z,100479
2018-04-11T19:45:59.162Z,100486
2018-04-11T19:48:29.620Z,100480
2018-04-11T19:51:20.026Z,100484
2018-04-11T19:57:36.224Z,100474
2018-04-11T20:07:54.130Z,100469
2018-04-11T20:13:51.790Z,100473
2018-04-11T20:16:59.652Z,100461
2018-04-11T20:19:28.845Z,100473
2018-04-11T20:21:59.015Z,100474
2018-04-11T20:24:55.023Z,100476
2018-04-11T20:30:03.384Z,100475
2018-04-11T20:32:32.084Z,100474
2018-04-11T20:37:57.765Z,100467
2018-04-11T20:40:26.524Z,100474
2018-04-11T20:42:55.879Z,100470
2018-04-11T20:45:26.811Z,100468
2018-04-11T20:47:55.173Z,100471
2018-04-11T20:50:23.415Z,100462
2018-04-11T20:53:01.226Z,100461
2018-04-11T20:58:31.329Z,100451
2018-04-11T21:00:59.571Z,100461
2018-04-11T21:03:27.700Z,100447
2018-04-11T21:05:59.035Z,100452
2018-04-11T21:08:31.165Z,100442
2018-04-11T21:10:59.963Z,100446
2018-04-11T21:13:33.501Z,100443
2018-04-11T21:16:01.735Z,100436
2018-04-11T21:18:35.035Z,100447
2018-04-11T21:24:07.056Z,100441
2018-04-11T21:26:35.403Z,100453
2018-04-11T21:29:03.970Z,100443
2018-04-11T21:34:36.819Z,100419
2018-04-11T21:37:05.371Z,100425
2018-04-11T21:43:04.199Z,100418
2018-04-11T21:45:36.443Z,100411
2018-04-11T21:48:04.775Z,100421
2018-04-11T21:50:39.370Z,100410
2018-04-11T21:53:07.560Z,100418
2018-04-11T21:55:35.841Z,100418
2018-04-11T22:01:15.654Z,100429
2018-04-11T22:06:53.283Z,100427
2018-04-11T22:09:22.211Z,100422
2018-04-11T22:12:10.632Z,100418
2018-04-11T22:14:38.785Z,100411
2018-04-11T22:20:26.799Z,100398
2018-04-11T22:23:22.831Z,100394
2018-04-11T22:25:50.961Z,100393
2018-04-11T22:28:19.198Z,100389
2018-04-11T22:31:13.283Z,100384
2018-04-11T22:33:49.423Z,100386
2018-04-11T22:36:17.696Z,100367
2018-04-11T22:38:47.129Z,100368
2018-04-11T22:41:15.988Z,100367
2018-04-11T22:50:19.326Z,100367
2018-04-11T22:53:16.725Z,100366
2018-04-11T22:58:49.049Z,100345
2018-04-11T23:04:34.204Z,100350
2018-04-11T23:10:09.520Z,100347
2018-04-11T23:12:38.389Z,100350
2018-04-11T23:15:06.652Z,100346
2018-04-11T23:17:36.570Z,100344
2018-04-11T23:20:04.814Z,100347
2018-04-11T23:22:32.995Z,100340
2018-04-11T23:25:01.926Z,100340
2018-04-11T23:27:40.386Z,100341
2018-04-11T23:30:08.757Z,100333
2018-04-11T23:32:37.710Z,100326
2018-04-11T23:35:06.764Z,100330
2018-04-11T23:37:34.942Z,100326
2018-04-11T23:40:03.112Z,100332
2018-04-11T23:42:40.793Z,100330
2018-04-11T23:45:09.011Z,100321
2018-04-11T23:47:37.160Z,100319
2018-04-11T23:50:05.395Z,100316
2018-04-11T23:52:33.571Z,100323
2018-04-11T23:55:02.519Z,100307
2018-04-11T23:57:32.619Z,100312
